createdAt,value
2022-12-01T00:01:17.985Z,18.92
2022-12-01T00:03:44.883Z,18.42
2022-12-01T00:06:17.356Z,17.85
2022-12-01T00:09:05.453Z,19.00
2022-12-01T00:11:33.238Z,18.42
2022-12-01T00:14:00.961Z,19.35
2022-12-01T00:16:27.887Z,18.00
2022-12-01T00:18:55.039Z,19.15
2022-12-01T00:21:23.789Z,18.53
2022-12-01T00:23:53.382Z,18.83
2022-12-01T00:26:20.971Z,18.58
2022-12-01T00:28:56.446Z,19.58
2022-12-01T00:31:28.398Z,18.58
2022-12-01T00:33:55.369Z,18.80
2022-12-01T00:36:22.563Z,21.67
2022-12-01T00:38:56.058Z,21.27
2022-12-01T00:41:24.667Z,20.80
2022-12-01T00:43:52.193Z,20.92
2022-12-01T00:46:20.192Z,20.07
2022-12-01T00:48:47.248Z,21.23
2022-12-01T00:51:13.982Z,20.52
2022-12-01T00:53:41.123Z,21.23
2022-12-01T00:56:07.999Z,20.45
2022-12-01T00:58:34.852Z,20.07
2022-12-01T01:01:02.336Z,20.55
2022-12-01T01:03:29.856Z,21.10
2022-12-01T01:05:56.896Z,20.35
2022-12-01T01:08:23.793Z,20.60
2022-12-01T01:10:50.583Z,20.73
2022-12-01T01:13:18.674Z,20.25
2022-12-01T01:15:45.455Z,20.25
2022-12-01T01:18:12.546Z,20.85
2022-12-01T01:20:39.570Z,20.63
2022-12-01T01:23:06.400Z,21.17
2022-12-01T01:25:34.421Z,20.63
2022-12-01T01:28:01.172Z,20.95
2022-12-01T01:30:28.313Z,21.00
2022-12-01T01:32:55.208Z,20.75
2022-12-01T01:35:22.262Z,20.67
2022-12-01T01:37:50.839Z,20.88
2022-12-01T01:40:18.058Z,20.83
2022-12-01T01:42:44.943Z,20.83
2022-12-01T01:45:29.075Z,21.45
2022-12-01T01:47:59.040Z,20.60
2022-12-01T01:50:28.410Z,20.02
2022-12-01T01:53:06.422Z,20.52
2022-12-01T01:55:34.566Z,20.50
2022-12-01T01:58:05.768Z,20.02
2022-12-01T02:00:32.760Z,20.67
2022-12-01T02:03:00.164Z,21.08
2022-12-01T02:05:34.459Z,19.70
2022-12-01T02:08:03.174Z,18.95
2022-12-01T02:11:02.196Z,20.20
2022-12-01T02:13:47.537Z,19.30
2022-12-01T02:16:31.790Z,19.73
2022-12-01T02:19:31.342Z,20.50
2022-12-01T02:22:19.397Z,20.08
2022-12-01T02:24:48.911Z,19.23
2022-12-01T02:27:41.302Z,19.50
2022-12-01T02:30:16.749Z,19.77
2022-12-01T02:33:04.528Z,19.80
2022-12-01T02:35:55.738Z,19.33
2022-12-01T02:38:43.535Z,19.55
2022-12-01T02:41:31.130Z,19.07
2022-12-01T02:44:34.348Z,19.55
2022-12-01T02:47:14.498Z,20.17
2022-12-01T02:49:50.850Z,19.45
2022-12-01T02:52:19.676Z,19.58
2022-12-01T02:54:48.478Z,20.23
2022-12-01T02:57:16.827Z,20.00
2022-12-01T02:59:47.922Z,20.77
2022-12-01T03:02:32.873Z,19.20
2022-12-01T03:05:29.515Z,19.17
2022-12-01T03:08:06.993Z,20.00
2022-12-01T03:10:53.730Z,19.50
2022-12-01T03:13:38.845Z,20.13
2022-12-01T03:16:17.607Z,19.63
2022-12-01T03:19:07.132Z,18.13
2022-12-01T03:21:40.782Z,19.47
2022-12-01T03:24:19.472Z,20.80
2022-12-01T03:26:48.706Z,19.25
2022-12-01T03:29:19.817Z,19.92
2022-12-01T03:31:54.279Z,19.88
2022-12-01T03:34:31.208Z,18.77
2022-12-01T03:37:04.790Z,19.88
2022-12-01T03:39:34.571Z,18.83
2022-12-01T03:42:09.982Z,20.08
2022-12-01T03:44:46.495Z,19.63
2022-12-01T03:47:22.739Z,19.97
2022-12-01T03:49:52.397Z,19.40
2022-12-01T03:52:33.528Z,20.23
2022-12-01T03:55:13.068Z,20.83
2022-12-01T03:57:49.969Z,19.75
2022-12-01T04:00:17.107Z,20.13
2022-12-01T04:02:44.986Z,20.20
2022-12-01T04:05:12.528Z,19.77
2022-12-01T04:07:40.287Z,19.55
2022-12-01T04:10:08.233Z,19.65
2022-12-01T04:12:35.118Z,20.20
2022-12-01T04:15:12.325Z,20.90
2022-12-01T04:17:39.556Z,20.48
2022-12-01T04:20:07.377Z,19.58
2022-12-01T04:22:34.224Z,21.45
2022-12-01T04:25:01.135Z,20.40
2022-12-01T04:27:27.919Z,20.52
2022-12-01T04:29:54.741Z,20.70
2022-12-01T04:32:21.745Z,20.42
2022-12-01T04:34:48.646Z,21.17
2022-12-01T04:37:16.129Z,20.20
2022-12-01T04:39:43.293Z,20.70
2022-12-01T04:42:10.833Z,19.67
2022-12-01T04:44:37.575Z,20.77
2022-12-01T04:47:05.365Z,20.75
2022-12-01T04:49:33.002Z,19.57
2022-12-01T04:51:59.775Z,20.38
2022-12-01T04:54:26.796Z,20.83
2022-12-01T04:56:53.593Z,20.52
2022-12-01T04:59:20.438Z,20.45
2022-12-01T05:01:48.220Z,20.37
2022-12-01T05:04:15.588Z,21.33
2022-12-01T05:06:42.865Z,20.20
2022-12-01T05:09:16.863Z,19.67
2022-12-01T05:11:44.841Z,20.17
2022-12-01T05:14:11.650Z,20.13
2022-12-01T05:16:38.463Z,20.70
2022-12-01T05:19:24.669Z,19.77
2022-12-01T05:21:51.921Z,20.30
2022-12-01T05:24:20.067Z,19.67
2022-12-01T05:26:46.900Z,21.00
2022-12-01T05:29:14.131Z,19.77
2022-12-01T05:31:41.412Z,21.23
2022-12-01T05:34:08.385Z,21.63
2022-12-01T05:36:35.393Z,20.30
2022-12-01T05:39:02.217Z,20.27
2022-12-01T05:41:29.118Z,20.80
2022-12-01T05:43:55.863Z,19.55
2022-12-01T05:46:22.834Z,20.98
2022-12-01T05:48:49.676Z,20.52
2022-12-01T05:51:17.352Z,18.87
2022-12-01T05:53:44.671Z,19.58
2022-12-01T05:56:11.566Z,20.63
2022-12-01T05:58:38.464Z,19.25
2022-12-01T06:01:05.526Z,21.27
2022-12-01T06:03:32.302Z,19.67
2022-12-01T06:05:59.150Z,19.17
2022-12-01T06:08:25.995Z,20.05
2022-12-01T06:10:52.855Z,21.00
2022-12-01T06:13:20.107Z,20.38
2022-12-01T06:15:59.426Z,20.87
2022-12-01T06:18:27.608Z,20.80
2022-12-01T06:20:54.351Z,20.27
2022-12-01T06:23:24.248Z,21.17
2022-12-01T06:25:53.297Z,21.40
2022-12-01T06:28:20.148Z,22.27
2022-12-01T06:30:46.935Z,20.10
2022-12-01T06:33:13.804Z,20.40
2022-12-01T06:35:40.594Z,21.75
2022-12-01T06:38:07.520Z,19.20
2022-12-01T06:40:34.304Z,18.90
2022-12-01T06:43:05.681Z,19.55
2022-12-01T06:45:32.852Z,20.75
2022-12-01T06:47:59.785Z,19.20
2022-12-01T06:50:26.706Z,19.25
2022-12-01T06:52:55.299Z,17.70
2022-12-01T06:55:22.206Z,18.42
2022-12-01T06:57:49.411Z,18.65
2022-12-01T07:00:17.159Z,17.80
2022-12-01T07:02:44.797Z,17.90
2022-12-01T07:05:11.663Z,18.00
2022-12-01T07:07:39.854Z,20.42
2022-12-01T07:10:08.113Z,20.17
2022-12-01T07:12:35.643Z,18.13
2022-12-01T07:15:03.056Z,22.95
2022-12-01T07:17:30.042Z,21.63
2022-12-01T07:19:57.233Z,20.23
2022-12-01T07:22:26.978Z,20.23
2022-12-01T07:24:57.875Z,19.67
2022-12-01T07:27:24.714Z,19.95
2022-12-01T07:29:51.707Z,21.97
2022-12-01T07:32:18.660Z,22.33
2022-12-01T07:34:45.496Z,21.90
2022-12-01T07:37:12.210Z,20.40
2022-12-01T07:39:39.127Z,19.45
2022-12-01T07:42:06.099Z,19.67
2022-12-01T07:44:32.947Z,18.95
2022-12-01T07:46:59.834Z,21.48
2022-12-01T07:49:26.887Z,22.17
2022-12-01T07:51:53.729Z,22.02
2022-12-01T07:54:21.348Z,21.13
2022-12-01T07:56:48.229Z,19.45
2022-12-01T07:59:15.043Z,20.20
2022-12-01T08:01:44.662Z,20.23
2022-12-01T08:04:12.473Z,20.20
2022-12-01T08:06:39.288Z,19.13
2022-12-01T08:09:06.168Z,19.90
2022-12-01T08:11:33.096Z,19.42
2022-12-01T08:13:59.863Z,19.00
2022-12-01T08:16:26.918Z,21.05
2022-12-01T08:18:54.352Z,21.73
2022-12-01T08:21:23.287Z,21.40
2022-12-01T08:23:55.471Z,21.77
2022-12-01T08:26:23.341Z,20.30
2022-12-01T08:28:50.734Z,21.50
2022-12-01T08:31:23.964Z,22.47
2022-12-01T08:33:51.305Z,21.92
2022-12-01T08:36:18.699Z,21.95
2022-12-01T08:38:47.066Z,22.67
2022-12-01T08:41:14.954Z,22.35
2022-12-01T08:44:00.302Z,22.17
2022-12-01T08:46:31.031Z,22.55
2022-12-01T08:48:58.278Z,21.98
2022-12-01T08:51:25.869Z,22.50
2022-12-01T08:53:52.993Z,22.63
2022-12-01T08:56:25.914Z,22.47
2022-12-01T08:58:54.617Z,22.48
2022-12-01T09:01:22.204Z,22.25
2022-12-01T09:03:49.246Z,23.65
2022-12-01T09:06:20.824Z,23.17
2022-12-01T09:08:48.265Z,22.73
2022-12-01T09:11:17.626Z,22.20
2022-12-01T09:13:48.605Z,22.17
2022-12-01T09:16:18.986Z,22.15
2022-12-01T09:18:47.436Z,21.95
2022-12-01T09:21:17.678Z,22.37
2022-12-01T09:23:45.023Z,21.70
2022-12-01T09:26:13.983Z,21.58
2022-12-01T09:28:40.967Z,21.40
2022-12-01T09:31:10.076Z,22.52
2022-12-01T09:33:37.027Z,21.70
2022-12-01T09:36:05.293Z,21.50
2022-12-01T09:38:34.241Z,22.17
2022-12-01T09:41:26.678Z,21.60
2022-12-01T09:44:15.199Z,20.52
2022-12-01T09:46:48.422Z,20.57
2022-12-01T09:49:20.438Z,20.95
2022-12-01T09:51:47.464Z,21.55
2022-12-01T09:54:15.073Z,20.75
2022-12-01T09:56:53.005Z,20.98
2022-12-01T09:59:25.400Z,21.00
2022-12-01T10:02:01.831Z,20.98
2022-12-01T10:04:37.338Z,21.65
2022-12-01T10:07:21.679Z,20.48
2022-12-01T10:10:01.077Z,22.90
2022-12-01T10:12:34.212Z,21.87
2022-12-01T10:15:31.441Z,22.77
2022-12-01T10:18:26.573Z,21.90
2022-12-01T10:21:11.834Z,22.98
2022-12-01T10:24:04.101Z,23.08
2022-12-01T10:27:12.884Z,23.10
2022-12-01T10:30:05.297Z,23.02
2022-12-01T10:32:41.322Z,23.30
2022-12-01T10:35:14.842Z,21.77
2022-12-01T10:37:43.775Z,22.92
2022-12-01T10:40:15.869Z,22.97
2022-12-01T10:42:48.286Z,23.27
2022-12-01T10:45:27.529Z,23.13
2022-12-01T10:48:20.672Z,23.67
2022-12-01T10:50:52.990Z,23.58
2022-12-01T10:53:22.802Z,22.63
2022-12-01T10:56:12.576Z,23.02
2022-12-01T10:58:56.271Z,23.48
2022-12-01T11:01:28.610Z,22.92
2022-12-01T11:04:01.536Z,22.55
2022-12-01T11:06:30.985Z,22.90
2022-12-01T11:09:01.026Z,22.10
2022-12-01T11:11:40.826Z,22.70
2022-12-01T11:14:25.170Z,22.27
2022-12-01T11:16:53.965Z,22.05
2022-12-01T11:19:31.288Z,21.93
2022-12-01T11:22:12.837Z,21.27
2022-12-01T11:24:43.073Z,20.40
2022-12-01T11:27:17.673Z,21.35
2022-12-01T11:29:47.096Z,21.55
2022-12-01T11:32:23.195Z,20.83
2022-12-01T11:34:54.645Z,20.50
2022-12-01T11:37:28.251Z,22.00
2022-12-01T11:40:25.916Z,20.63
2022-12-01T11:42:57.273Z,20.50
2022-12-01T11:45:28.716Z,20.03
2022-12-01T11:48:12.888Z,19.50
2022-12-01T11:50:42.728Z,20.30
2022-12-01T11:53:31.716Z,20.05
2022-12-01T11:56:24.595Z,19.95
2022-12-01T11:58:57.980Z,20.60
2022-12-01T12:01:54.023Z,19.52
2022-12-01T12:04:39.792Z,19.55
2022-12-01T12:07:18.535Z,19.58
2022-12-01T12:10:17.260Z,20.42
2022-12-01T12:13:05.114Z,20.33
2022-12-01T12:15:56.134Z,20.45
2022-12-01T12:18:52.368Z,20.27
2022-12-01T12:21:47.933Z,19.98
2022-12-01T12:24:43.915Z,19.05
2022-12-01T12:27:16.616Z,20.03
2022-12-01T12:29:51.640Z,19.50
2022-12-01T12:32:48.902Z,20.30
2022-12-01T12:35:55.349Z,19.20
2022-12-01T12:38:35.519Z,19.65
2022-12-01T12:41:20.169Z,19.20
2022-12-01T12:44:09.716Z,19.95
2022-12-01T12:46:51.993Z,20.02
2022-12-01T12:49:44.734Z,19.73
2022-12-01T12:52:24.303Z,19.98
2022-12-01T12:55:00.587Z,19.50
2022-12-01T12:57:40.780Z,19.75
2022-12-01T13:00:15.353Z,19.85
2022-12-01T13:02:47.794Z,20.33
2022-12-01T13:05:31.410Z,20.52
2022-12-01T13:08:04.328Z,18.00
2022-12-01T13:10:46.615Z,18.67
2022-12-01T13:13:52.223Z,18.55
2022-12-01T13:16:26.007Z,18.17
2022-12-01T13:19:05.796Z,18.92
2022-12-01T13:21:42.123Z,18.27
2022-12-01T13:24:18.502Z,17.83
2022-12-01T13:26:54.528Z,17.35
2022-12-01T13:29:24.859Z,17.92
2022-12-01T13:31:54.005Z,17.48
2022-12-01T13:34:40.939Z,17.27
2022-12-01T13:37:10.699Z,16.90
2022-12-01T13:39:39.092Z,17.00
2022-12-01T13:42:26.801Z,17.88
2022-12-01T13:44:55.576Z,18.40
2022-12-01T13:47:47.392Z,17.40
2022-12-01T13:50:36.238Z,17.48
2022-12-01T13:53:19.372Z,16.98
2022-12-01T13:56:17.095Z,16.88
2022-12-01T13:58:49.333Z,16.85
2022-12-01T14:01:22.839Z,16.57
2022-12-01T14:04:01.168Z,16.40
2022-12-01T14:06:30.935Z,16.75
2022-12-01T14:09:04.490Z,17.23
2022-12-01T14:11:34.229Z,16.90
2022-12-01T14:14:12.217Z,16.90
2022-12-01T14:16:52.080Z,15.95
2022-12-01T14:20:16.479Z,16.42
2022-12-01T14:22:46.363Z,16.70
2022-12-01T14:25:21.537Z,16.17
2022-12-01T14:27:53.754Z,15.67
2022-12-01T14:30:39.591Z,16.52
2022-12-01T14:33:43.065Z,16.77
2022-12-01T14:36:32.154Z,15.75
2022-12-01T14:38:59.062Z,15.85
2022-12-01T14:41:30.820Z,16.57
2022-12-01T14:44:28.090Z,16.70
2022-12-01T14:46:58.847Z,16.98
2022-12-01T14:49:34.361Z,15.95
2022-12-01T14:52:06.734Z,15.90
2022-12-01T14:54:42.010Z,15.90
2022-12-01T14:57:16.356Z,16.40
2022-12-01T14:59:43.845Z,16.58
2022-12-01T15:02:12.219Z,15.38
2022-12-01T15:05:13.810Z,15.88
2022-12-01T15:07:45.712Z,16.47
2022-12-01T15:10:34.828Z,16.45
2022-12-01T15:13:24.548Z,16.40
2022-12-01T15:15:55.074Z,15.88
2022-12-01T15:18:28.663Z,15.80
2022-12-01T15:21:10.908Z,15.73
2022-12-01T15:23:52.966Z,15.23
2022-12-01T15:26:21.738Z,16.55
2022-12-01T15:28:48.907Z,15.50
2022-12-01T15:31:16.154Z,15.73
2022-12-01T15:33:51.913Z,16.07
2022-12-01T15:36:18.848Z,15.25
2022-12-01T15:38:47.781Z,15.80
2022-12-01T15:41:34.859Z,16.50
2022-12-01T15:44:03.652Z,18.77
2022-12-01T15:46:32.765Z,17.80
2022-12-01T15:49:20.456Z,18.05
2022-12-01T15:51:49.066Z,18.15
2022-12-01T15:54:25.397Z,17.88
2022-12-01T15:56:54.857Z,17.42
2022-12-01T15:59:41.173Z,17.80
2022-12-01T16:02:31.885Z,17.88
2022-12-01T16:05:13.797Z,18.17
2022-12-01T16:10:39.355Z,18.92
2022-12-01T16:13:44.074Z,18.00
2022-12-01T16:16:29.858Z,18.30
2022-12-01T16:19:10.128Z,18.05
2022-12-01T16:21:46.152Z,18.23
2022-12-01T16:24:19.576Z,17.38
2022-12-01T16:26:59.484Z,16.73
2022-12-01T16:29:28.423Z,16.85
2022-12-01T16:32:20.234Z,16.50
2022-12-01T16:34:46.796Z,16.92
2022-12-01T16:37:15.581Z,17.10
2022-12-01T16:39:42.817Z,14.70
2022-12-01T16:42:17.799Z,15.75
2022-12-01T16:44:46.626Z,15.52
2022-12-01T16:47:23.061Z,15.32
2022-12-01T16:49:50.841Z,15.07
2022-12-01T16:55:18.339Z,15.00
2022-12-01T16:57:45.222Z,14.52
2022-12-01T17:00:12.540Z,14.70
2022-12-01T17:02:39.422Z,15.20
2022-12-01T17:05:06.500Z,13.83
2022-12-01T17:07:33.298Z,14.80
2022-12-01T17:10:00.073Z,13.98
2022-12-01T17:12:26.991Z,14.95
2022-12-01T17:14:53.803Z,13.93
2022-12-01T17:17:20.590Z,14.33
2022-12-01T17:19:47.302Z,14.30
2022-12-01T17:22:14.159Z,15.63
2022-12-01T17:24:41.055Z,14.25
2022-12-01T17:27:07.890Z,14.82
2022-12-01T17:29:34.700Z,13.37
2022-12-01T17:32:01.463Z,14.43
2022-12-01T17:34:28.280Z,13.88
2022-12-01T17:36:55.076Z,14.55
2022-12-01T17:39:22.275Z,14.68
2022-12-01T17:41:48.979Z,15.17
2022-12-01T17:44:15.974Z,13.90
2022-12-01T17:46:43.377Z,14.65
2022-12-01T17:49:10.698Z,15.30
2022-12-01T17:51:38.587Z,15.48
2022-12-01T17:54:05.990Z,15.53
2022-12-01T17:56:35.105Z,14.93
2022-12-01T17:59:02.698Z,14.43
2022-12-01T18:01:30.593Z,15.27
2022-12-01T18:03:59.276Z,14.75
2022-12-01T18:06:27.498Z,15.90
2022-12-01T18:08:55.341Z,15.00
2022-12-01T18:11:22.876Z,15.43
2022-12-01T18:13:51.337Z,16.25
2022-12-01T18:16:30.196Z,14.98
2022-12-01T18:18:58.450Z,15.37
2022-12-01T18:21:26.701Z,15.90
2022-12-01T18:23:59.570Z,16.38
2022-12-01T18:26:27.982Z,15.70
2022-12-01T18:29:03.868Z,15.88
2022-12-01T18:31:31.465Z,16.60
2022-12-01T18:34:02.605Z,16.80
2022-12-01T18:36:31.512Z,17.67
2022-12-01T18:39:00.006Z,18.17
2022-12-01T18:41:27.020Z,17.13
2022-12-01T18:43:54.116Z,17.83
2022-12-01T18:46:21.849Z,16.88
2022-12-01T18:48:59.406Z,17.42
2022-12-01T18:51:26.565Z,16.55
2022-12-01T18:53:54.833Z,17.75
2022-12-01T18:56:21.970Z,17.53
2022-12-01T18:58:57.425Z,15.40
2022-12-01T19:01:33.085Z,16.48
2022-12-01T19:04:00.789Z,17.98
2022-12-01T19:06:29.116Z,16.23
2022-12-01T19:09:00.532Z,15.43
2022-12-01T19:11:28.462Z,16.27
2022-12-01T19:13:58.349Z,15.38
2022-12-01T19:16:26.173Z,14.80
2022-12-01T19:18:53.372Z,15.15
2022-12-01T19:21:21.039Z,15.97
2022-12-01T19:23:49.597Z,15.30
2022-12-01T19:26:18.999Z,15.07
2022-12-01T19:28:47.054Z,15.20
2022-12-01T19:31:20.285Z,15.55
2022-12-01T19:33:47.498Z,14.60
2022-12-01T19:36:20.655Z,15.10
2022-12-01T19:38:48.040Z,15.40
2022-12-01T19:41:15.322Z,14.73
2022-12-01T19:43:42.499Z,15.90
2022-12-01T19:46:11.967Z,15.67
2022-12-01T19:48:39.272Z,16.42
2022-12-01T19:51:06.391Z,17.98
2022-12-01T19:53:34.154Z,16.73
2022-12-01T19:56:05.345Z,17.02
2022-12-01T19:58:33.461Z,17.30
2022-12-01T20:01:05.795Z,17.70
2022-12-01T20:03:32.779Z,17.80
2022-12-01T20:06:04.673Z,17.02
2022-12-01T20:08:35.571Z,16.77
2022-12-01T20:11:04.263Z,17.87
2022-12-01T20:13:32.951Z,17.80
2022-12-01T20:16:15.144Z,17.17
2022-12-01T20:18:42.717Z,17.23
2022-12-01T20:21:19.388Z,18.98
2022-12-01T20:23:49.472Z,18.57
2022-12-01T20:26:19.101Z,17.80
2022-12-01T20:28:48.810Z,18.67
2022-12-01T20:31:23.097Z,17.67
2022-12-01T20:33:52.107Z,17.65
2022-12-01T20:36:19.608Z,17.23
2022-12-01T20:38:46.776Z,18.75
2022-12-01T20:41:13.660Z,19.40
2022-12-01T20:43:40.937Z,19.25
2022-12-01T20:46:08.336Z,17.95
2022-12-01T20:48:35.266Z,19.40
2022-12-01T20:51:03.921Z,19.17
2022-12-01T20:53:30.977Z,19.83
2022-12-01T20:56:01.266Z,18.60
2022-12-01T20:58:28.017Z,19.10
2022-12-01T21:00:54.984Z,18.40
2022-12-01T21:03:21.707Z,20.08
2022-12-01T21:05:48.733Z,19.63
2022-12-01T21:08:15.611Z,18.95
2022-12-01T21:10:44.996Z,17.80
2022-12-01T21:13:39.267Z,19.20
2022-12-01T21:16:13.737Z,17.20
2022-12-01T21:18:53.702Z,19.27
2022-12-01T21:21:28.835Z,19.63
2022-12-01T21:24:17.077Z,18.98
2022-12-01T21:26:58.915Z,18.80
2022-12-01T21:29:28.725Z,19.60
2022-12-01T21:31:59.746Z,20.00
2022-12-01T21:34:28.902Z,17.75
2022-12-01T21:36:59.021Z,19.30
2022-12-01T21:39:26.602Z,18.90
2022-12-01T21:41:56.525Z,18.13
2022-12-01T21:44:32.366Z,19.45
2022-12-01T21:47:21.153Z,19.50
2022-12-01T21:49:51.811Z,20.20
2022-12-01T21:52:22.932Z,19.30
2022-12-01T21:54:51.191Z,20.45
2022-12-01T21:57:42.557Z,19.25
2022-12-01T22:00:30.351Z,19.58
2022-12-01T22:03:08.535Z,18.60
2022-12-01T22:05:39.296Z,20.50
2022-12-01T22:08:26.279Z,19.58
2022-12-01T22:11:02.202Z,20.50
2022-12-01T22:13:51.494Z,19.75
2022-12-01T22:16:21.400Z,20.88
2022-12-01T22:18:53.819Z,20.37
2022-12-01T22:21:23.706Z,20.52
2022-12-01T22:24:17.824Z,21.38
2022-12-01T22:26:48.115Z,20.02
2022-12-01T22:29:31.078Z,21.05
2022-12-01T22:32:13.224Z,20.33
2022-12-01T22:34:49.441Z,20.30
2022-12-01T22:37:29.620Z,21.17
2022-12-01T22:39:57.254Z,20.95
2022-12-01T22:42:33.007Z,20.85
2022-12-01T22:45:24.682Z,19.20
2022-12-01T22:47:56.116Z,19.98
2022-12-01T22:50:29.874Z,20.80
2022-12-01T22:53:12.633Z,21.15
2022-12-01T22:55:40.209Z,20.73
2022-12-01T22:58:28.350Z,21.00
2022-12-01T23:00:57.924Z,21.38
2022-12-01T23:03:26.071Z,21.42
2022-12-01T23:05:56.856Z,20.52
2022-12-01T23:08:24.527Z,20.30
2022-12-01T23:10:52.319Z,21.90
2022-12-01T23:13:22.383Z,21.35
2022-12-01T23:15:54.088Z,21.05
2022-12-01T23:18:27.921Z,21.80
2022-12-01T23:20:57.249Z,21.45
2022-12-01T23:23:28.144Z,21.57
2022-12-01T23:25:55.096Z,21.05
2022-12-01T23:28:22.606Z,22.00
2022-12-01T23:30:52.855Z,21.63
2022-12-01T23:33:23.238Z,22.15
2022-12-01T23:35:59.760Z,22.53
2022-12-01T23:38:34.489Z,22.60
2022-12-01T23:41:06.349Z,23.05
2022-12-01T23:43:40.152Z,21.98
2022-12-01T23:46:10.570Z,21.42
2022-12-01T23:48:53.183Z,20.87
2022-12-01T23:51:25.771Z,22.55
2022-12-01T23:53:55.526Z,22.98
2022-12-01T23:56:24.798Z,22.55
2022-12-01T23:58:52.662Z,22.90
